createdAt,value
2018-01-07T00:00:17.935Z,1011.51
2018-01-07T00:01:17.925Z,1011.50
2018-01-07T00:02:17.915Z,1011.57
2018-01-07T00:03:17.905Z,1011.55
2018-01-07T00:04:17.888Z,1011.54
2018-01-07T00:05:17.881Z,1011.53
2018-01-07T00:06:17.866Z,1011.57
2018-01-07T00:07:17.852Z,1011.55
2018-01-07T00:08:17.845Z,1011.59
2018-01-07T00:09:17.834Z,1011.58
2018-01-07T00:10:17.820Z,1011.58
2018-01-07T00:11:17.809Z,1011.57
2018-01-07T00:12:17.800Z,1011.64
2018-01-07T00:13:17.787Z,1011.58
2018-01-07T00:14:17.775Z,1011.59
2018-01-07T00:15:17.773Z,1011.62
2018-01-07T00:16:17.752Z,1011.59
2018-01-07T00:17:17.738Z,1011.68
2018-01-07T00:18:17.734Z,1011.64
2018-01-07T00:19:17.720Z,1011.65
2018-01-07T00:20:17.702Z,1011.70
2018-01-07T00:21:17.694Z,1011.65
2018-01-07T00:22:17.691Z,1011.71
2018-01-07T00:23:17.672Z,1011.69
2018-01-07T00:24:17.681Z,1011.74
2018-01-07T00:25:17.678Z,1011.75
2018-01-07T00:26:17.634Z,1011.72
2018-01-07T00:27:17.685Z,1011.74
2018-01-07T00:28:17.614Z,1011.80
2018-01-07T00:29:17.602Z,1011.73
2018-01-07T00:30:17.604Z,1011.72
2018-01-07T00:31:17.581Z,1011.75
2018-01-07T00:32:17.575Z,1011.78
2018-01-07T00:33:17.550Z,1011.72
2018-01-07T00:34:17.542Z,1011.70
2018-01-07T00:35:17.536Z,1011.72
2018-01-07T00:36:17.519Z,1011.80
2018-01-07T00:37:17.512Z,1011.74
2018-01-07T00:38:17.496Z,1011.73
2018-01-07T00:39:17.486Z,1011.83
2018-01-07T00:40:17.475Z,1011.82
2018-01-07T00:41:17.465Z,1011.87
2018-01-07T00:42:17.449Z,1011.88
2018-01-07T00:43:17.492Z,1011.88
2018-01-07T00:44:17.433Z,1011.90
2018-01-07T00:45:17.440Z,1011.91
2018-01-07T00:46:17.405Z,1011.95
2018-01-07T00:47:17.399Z,1011.92
2018-01-07T00:48:17.379Z,1011.91
2018-01-07T00:49:17.372Z,1011.92
2018-01-07T00:50:17.361Z,1011.92
2018-01-07T00:51:17.346Z,1011.98
2018-01-07T00:52:17.337Z,1011.97
2018-01-07T00:53:17.328Z,1012.01
2018-01-07T00:54:17.316Z,1012.09
2018-01-07T00:55:17.302Z,1012.10
2018-01-07T00:56:17.284Z,1012.08
2018-01-07T00:57:17.284Z,1012.08
2018-01-07T00:58:17.268Z,1012.12
2018-01-07T00:59:17.257Z,1012.12
2018-01-07T01:00:17.246Z,1012.12
2018-01-07T01:01:17.235Z,1012.17
2018-01-07T01:02:17.218Z,1012.16
2018-01-07T01:03:17.208Z,1012.21
2018-01-07T01:04:17.196Z,1012.22
2018-01-07T01:05:17.190Z,1012.21
2018-01-07T01:06:17.173Z,1012.21
2018-01-07T01:07:17.156Z,1012.29
2018-01-07T01:08:17.147Z,1012.31
2018-01-07T01:09:17.160Z,1012.42
2018-01-07T01:10:17.124Z,1012.34
2018-01-07T01:11:17.115Z,1012.37
2018-01-07T01:12:17.106Z,1012.41
2018-01-07T01:13:17.088Z,1012.41
2018-01-07T01:14:17.081Z,1012.48
2018-01-07T01:15:17.070Z,1012.42
2018-01-07T01:16:17.059Z,1012.46
2018-01-07T01:17:17.048Z,1012.48
2018-01-07T01:19:54.098Z,1012.53
2018-01-07T01:20:54.082Z,1012.56
2018-01-07T01:22:47.880Z,1012.52
2018-01-07T01:23:47.862Z,1012.60
2018-01-07T01:25:41.700Z,1012.60
2018-01-07T01:26:41.637Z,1012.62
2018-01-07T01:28:36.076Z,1012.65
2018-01-07T01:29:35.757Z,1012.66
2018-01-07T01:31:29.397Z,1012.73
2018-01-07T01:32:29.362Z,1012.73
2018-01-07T01:34:23.087Z,1012.78
2018-01-07T01:35:23.049Z,1012.86
2018-01-07T01:37:16.651Z,1012.86
2018-01-07T01:38:16.630Z,1012.85
2018-01-07T01:40:10.286Z,1013.00
2018-01-07T01:41:10.249Z,1012.95
2018-01-07T01:43:03.964Z,1013.04
2018-01-07T01:44:03.956Z,1013.05
2018-01-07T01:45:57.589Z,1013.09
2018-01-07T01:46:57.547Z,1013.03
2018-01-07T01:48:51.106Z,1013.11
2018-01-07T01:49:51.092Z,1013.06
2018-01-07T01:51:44.780Z,1013.16
2018-01-07T01:52:44.737Z,1013.15
2018-01-07T01:54:38.426Z,1013.17
2018-01-07T01:55:38.381Z,1013.22
2018-01-07T01:56:38.366Z,1013.23
2018-01-07T01:57:38.356Z,1013.32
2018-01-07T01:58:38.352Z,1013.26
2018-01-07T01:59:38.336Z,1013.28
2018-01-07T02:00:38.318Z,1013.30
2018-01-07T02:01:38.315Z,1013.29
2018-01-07T02:02:38.297Z,1013.29
2018-01-07T02:03:38.282Z,1013.33
2018-01-07T02:04:38.274Z,1013.29
2018-01-07T02:05:38.263Z,1013.28
2018-01-07T02:06:38.249Z,1013.37
2018-01-07T02:07:38.246Z,1013.37
2018-01-07T02:08:38.226Z,1013.37
2018-01-07T02:09:38.217Z,1013.38
2018-01-07T02:10:38.202Z,1013.39
2018-01-07T02:11:38.191Z,1013.44
2018-01-07T02:12:38.179Z,1013.37
2018-01-07T02:13:38.168Z,1013.45
2018-01-07T02:14:38.158Z,1013.46
2018-01-07T02:15:38.146Z,1013.45
2018-01-07T02:16:38.140Z,1013.43
2018-01-07T02:17:38.117Z,1013.48
2018-01-07T02:18:38.109Z,1013.47
2018-01-07T02:19:38.098Z,1013.50
2018-01-07T02:20:38.089Z,1013.53
2018-01-07T02:21:38.077Z,1013.55
2018-01-07T02:22:38.080Z,1013.57
2018-01-07T02:23:38.054Z,1013.60
2018-01-07T02:24:38.037Z,1013.59
2018-01-07T02:25:38.032Z,1013.57
2018-01-07T02:26:38.015Z,1013.63
2018-01-07T02:27:38.003Z,1013.72
2018-01-07T02:28:37.993Z,1013.70
2018-01-07T02:29:37.983Z,1013.78
2018-01-07T02:30:37.972Z,1013.74
2018-01-07T02:31:37.958Z,1013.76
2018-01-07T02:32:37.949Z,1013.78
2018-01-07T02:33:37.937Z,1013.75
2018-01-07T02:34:37.925Z,1013.89
2018-01-07T02:35:37.914Z,1013.87
2018-01-07T02:36:37.900Z,1013.83
2018-01-07T02:37:37.900Z,1013.86
2018-01-07T02:38:37.877Z,1013.92
2018-01-07T02:39:37.862Z,1013.94
2018-01-07T02:40:37.852Z,1013.91
2018-01-07T02:41:37.844Z,1013.93
2018-01-07T02:42:37.829Z,1013.87
2018-01-07T02:43:37.823Z,1013.96
2018-01-07T02:44:37.808Z,1013.89
2018-01-07T02:45:37.794Z,1013.97
2018-01-07T02:46:37.780Z,1013.97
2018-01-07T02:47:37.772Z,1013.97
2018-01-07T02:48:37.768Z,1014.01
2018-01-07T02:49:37.745Z,1014.05
2018-01-07T02:50:37.737Z,1013.98
2018-01-07T02:51:37.735Z,1014.00
2018-01-07T02:52:37.714Z,1014.02
2018-01-07T02:53:37.706Z,1014.07
2018-01-07T02:54:37.689Z,1014.07
2018-01-07T02:55:37.679Z,1014.05
2018-01-07T02:56:37.668Z,1014.03
2018-01-07T02:57:37.654Z,1014.10
2018-01-07T02:58:37.644Z,1014.08
2018-01-07T02:59:37.637Z,1014.12
2018-01-07T03:00:37.618Z,1014.14
2018-01-07T03:01:37.611Z,1014.11
2018-01-07T03:02:37.597Z,1014.07
2018-01-07T03:03:37.585Z,1014.18
2018-01-07T03:04:37.578Z,1014.14
2018-01-07T03:05:37.565Z,1014.12
2018-01-07T03:06:37.551Z,1014.16
2018-01-07T03:07:37.539Z,1014.13
2018-01-07T03:08:37.524Z,1014.12
2018-01-07T03:09:37.512Z,1014.16
2018-01-07T03:10:37.506Z,1014.13
2018-01-07T03:11:37.490Z,1014.12
2018-01-07T03:12:37.479Z,1014.13
2018-01-07T03:13:37.470Z,1014.18
2018-01-07T03:14:37.456Z,1014.21
2018-01-07T03:15:37.448Z,1014.19
2018-01-07T03:16:37.440Z,1014.19
2018-01-07T03:17:37.421Z,1014.29
2018-01-07T03:18:37.420Z,1014.23
2018-01-07T03:19:37.398Z,1014.26
2018-01-07T03:20:37.386Z,1014.26
2018-01-07T03:21:37.371Z,1014.29
2018-01-07T03:22:37.359Z,1014.26
2018-01-07T03:23:37.350Z,1014.33
2018-01-07T03:24:37.337Z,1014.38
2018-01-07T03:25:37.325Z,1014.32
2018-01-07T03:26:37.313Z,1014.32
2018-01-07T03:27:37.327Z,1014.39
2018-01-07T03:28:37.291Z,1014.37
2018-01-07T03:29:37.287Z,1014.40
2018-01-07T03:30:37.269Z,1014.39
2018-01-07T03:31:37.255Z,1014.42
2018-01-07T03:32:37.254Z,1014.42
2018-01-07T03:33:37.232Z,1014.45
2018-01-07T03:34:37.225Z,1014.44
2018-01-07T03:35:37.208Z,1014.46
2018-01-07T03:36:37.194Z,1014.52
2018-01-07T03:37:37.187Z,1014.52
2018-01-07T03:38:37.180Z,1014.50
2018-01-07T03:39:37.163Z,1014.55
2018-01-07T03:40:37.149Z,1014.52
2018-01-07T03:41:37.143Z,1014.55
2018-01-07T03:42:37.126Z,1014.50
2018-01-07T03:43:37.111Z,1014.59
2018-01-07T03:44:37.103Z,1014.64
2018-01-07T03:45:37.097Z,1014.67
2018-01-07T03:46:37.079Z,1014.61
2018-01-07T03:47:37.065Z,1014.70
2018-01-07T03:48:37.053Z,1014.67
2018-01-07T03:49:37.060Z,1014.71
2018-01-07T03:50:37.035Z,1014.67
2018-01-07T03:51:37.020Z,1014.72
2018-01-07T03:52:37.008Z,1014.76
2018-01-07T03:53:36.995Z,1014.73
2018-01-07T03:54:36.983Z,1014.78
2018-01-07T03:55:36.977Z,1014.76
2018-01-07T03:56:36.964Z,1014.75
2018-01-07T03:57:36.949Z,1014.75
2018-01-07T03:58:36.934Z,1014.77
2018-01-07T03:59:36.927Z,1014.78
2018-01-07T04:00:36.915Z,1014.80
2018-01-07T04:01:36.902Z,1014.81
2018-01-07T04:02:36.897Z,1014.80
2018-01-07T04:03:36.879Z,1014.79
2018-01-07T04:04:36.864Z,1014.76
2018-01-07T04:05:36.852Z,1014.87
2018-01-07T04:06:36.845Z,1014.84
2018-01-07T04:07:36.831Z,1014.81
2018-01-07T04:08:36.821Z,1014.83
2018-01-07T04:09:36.806Z,1014.85
2018-01-07T04:10:36.797Z,1014.82
2018-01-07T04:11:36.782Z,1014.89
2018-01-07T04:12:36.773Z,1014.84
2018-01-07T04:13:36.761Z,1014.90
2018-01-07T04:14:36.749Z,1014.89
2018-01-07T04:15:36.733Z,1014.84
2018-01-07T04:16:36.724Z,1014.86
2018-01-07T04:17:36.714Z,1014.79
2018-01-07T04:18:36.704Z,1014.87
2018-01-07T04:19:36.690Z,1014.91
2018-01-07T04:20:36.681Z,1014.93
2018-01-07T04:21:36.665Z,1014.96
2018-01-07T04:22:36.653Z,1014.99
2018-01-07T04:23:36.644Z,1014.99
2018-01-07T04:24:36.628Z,1015.02
2018-01-07T04:25:36.617Z,1015.03
2018-01-07T04:26:36.602Z,1015.08
2018-01-07T04:27:36.595Z,1015.05
2018-01-07T04:28:36.593Z,1015.08
2018-01-07T04:29:36.570Z,1014.98
2018-01-07T04:30:36.560Z,1015.06
2018-01-07T04:31:36.546Z,1015.03
2018-01-07T04:32:36.533Z,1015.05
2018-01-07T04:33:36.520Z,1015.03
2018-01-07T04:34:36.507Z,1015.06
2018-01-07T04:35:36.503Z,1015.07
2018-01-07T04:36:36.486Z,1015.08
2018-01-07T04:37:36.474Z,1015.12
2018-01-07T04:38:36.463Z,1015.13
2018-01-07T04:39:36.451Z,1015.09
2018-01-07T04:40:36.440Z,1015.09
2018-01-07T04:41:36.426Z,1015.16
2018-01-07T04:42:36.417Z,1015.14
2018-01-07T04:43:36.402Z,1015.13
2018-01-07T04:44:36.394Z,1015.16
2018-01-07T04:45:36.383Z,1015.18
2018-01-07T04:46:36.379Z,1015.15
2018-01-07T04:47:36.357Z,1015.20
2018-01-07T04:48:36.339Z,1015.20
2018-01-07T04:49:36.330Z,1015.22
2018-01-07T04:50:36.327Z,1015.27
2018-01-07T04:51:36.311Z,1015.25
2018-01-07T04:52:36.297Z,1015.33
2018-01-07T04:53:36.288Z,1015.33
2018-01-07T04:54:36.273Z,1015.34
2018-01-07T04:55:36.268Z,1015.41
2018-01-07T04:56:36.249Z,1015.47
2018-01-07T04:57:36.251Z,1015.43
2018-01-07T04:58:36.226Z,1015.49
2018-01-07T04:59:36.209Z,1015.54
2018-01-07T05:00:36.201Z,1015.55
2018-01-07T05:01:36.194Z,1015.56
2018-01-07T05:02:36.179Z,1015.59
2018-01-07T05:03:36.166Z,1015.58
2018-01-07T05:04:36.159Z,1015.62
2018-01-07T05:05:36.143Z,1015.66
2018-01-07T05:06:36.134Z,1015.66
2018-01-07T05:07:36.119Z,1015.62
2018-01-07T05:08:36.108Z,1015.62
2018-01-07T05:09:36.096Z,1015.62
2018-01-07T05:10:36.083Z,1015.61
2018-01-07T05:11:36.068Z,1015.65
2018-01-07T05:12:36.064Z,1015.64
2018-01-07T05:13:36.045Z,1015.64
2018-01-07T05:14:36.038Z,1015.66
2018-01-07T05:15:36.021Z,1015.60
2018-01-07T05:16:36.012Z,1015.70
2018-01-07T05:17:35.995Z,1015.71
2018-01-07T05:18:35.987Z,1015.72
2018-01-07T05:19:35.984Z,1015.73
2018-01-07T05:20:35.960Z,1015.77
2018-01-07T05:21:35.950Z,1015.75
2018-01-07T05:22:35.938Z,1015.81
2018-01-07T05:23:35.925Z,1015.71
2018-01-07T05:24:35.912Z,1015.80
2018-01-07T05:25:35.906Z,1015.78
2018-01-07T05:26:35.892Z,1015.79
2018-01-07T05:27:35.883Z,1015.82
2018-01-07T05:28:35.866Z,1015.77
2018-01-07T05:29:35.860Z,1015.80
2018-01-07T05:30:35.843Z,1015.83
2018-01-07T05:31:35.830Z,1015.86
2018-01-07T05:32:35.819Z,1015.94
2018-01-07T05:33:35.806Z,1015.91
2018-01-07T05:34:35.799Z,1015.93
2018-01-07T05:35:35.784Z,1015.93
2018-01-07T05:36:35.771Z,1015.91
2018-01-07T05:37:35.761Z,1015.92
2018-01-07T05:38:35.755Z,1015.92
2018-01-07T05:39:35.734Z,1015.97
2018-01-07T05:40:35.726Z,1015.97
2018-01-07T05:41:35.710Z,1016.01
2018-01-07T05:42:35.701Z,1015.98
2018-01-07T05:43:35.682Z,1015.98
2018-01-07T05:44:35.674Z,1016.07
2018-01-07T05:45:35.666Z,1016.13
2018-01-07T05:46:35.650Z,1016.12
2018-01-07T05:47:35.635Z,1016.08
2018-01-07T05:48:35.624Z,1016.13
2018-01-07T05:49:35.615Z,1016.15
2018-01-07T05:50:35.606Z,1016.15
2018-01-07T05:51:35.589Z,1016.16
2018-01-07T05:52:35.576Z,1016.16
2018-01-07T05:53:35.564Z,1016.22
2018-01-07T05:54:35.549Z,1016.19
2018-01-07T05:55:35.540Z,1016.20
2018-01-07T05:56:35.526Z,1016.22
2018-01-07T05:57:35.517Z,1016.26
2018-01-07T05:58:35.504Z,1016.32
2018-01-07T05:59:35.489Z,1016.32
2018-01-07T06:00:35.475Z,1016.35
2018-01-07T06:01:35.468Z,1016.38
2018-01-07T06:02:35.457Z,1016.47
2018-01-07T06:03:35.440Z,1016.48
2018-01-07T06:04:35.431Z,1016.48
2018-01-07T06:05:35.419Z,1016.48
2018-01-07T06:06:35.407Z,1016.52
2018-01-07T06:07:35.391Z,1016.46
2018-01-07T06:08:35.377Z,1016.53
2018-01-07T06:09:35.369Z,1016.48
2018-01-07T06:10:35.358Z,1016.53
2018-01-07T06:11:35.343Z,1016.52
2018-01-07T06:12:35.338Z,1016.58
2018-01-07T06:13:35.319Z,1016.57
2018-01-07T06:14:35.306Z,1016.60
2018-01-07T06:15:35.295Z,1016.61
2018-01-07T06:16:35.328Z,1016.64
2018-01-07T06:17:35.274Z,1016.67
2018-01-07T06:18:35.277Z,1016.69
2018-01-07T06:19:35.247Z,1016.71
2018-01-07T06:20:35.230Z,1016.72
2018-01-07T06:21:35.236Z,1016.73
2018-01-07T06:22:35.208Z,1016.72
2018-01-07T06:23:35.195Z,1016.75
2018-01-07T06:24:35.182Z,1016.77
2018-01-07T06:25:35.174Z,1016.75
2018-01-07T06:26:35.158Z,1016.86
2018-01-07T06:27:35.144Z,1016.89
2018-01-07T06:28:35.133Z,1016.90
2018-01-07T06:29:35.116Z,1016.92
2018-01-07T06:30:35.108Z,1016.97
2018-01-07T06:31:35.097Z,1016.93
2018-01-07T06:32:35.093Z,1017.02
2018-01-07T06:33:35.065Z,1017.03
2018-01-07T06:34:35.054Z,1017.03
2018-01-07T06:35:35.045Z,1017.07
2018-01-07T06:36:35.029Z,1017.13
2018-01-07T06:37:35.025Z,1017.08
2018-01-07T06:38:35.007Z,1017.13
2018-01-07T06:39:34.992Z,1017.18
2018-01-07T06:40:34.984Z,1017.18
2018-01-07T06:41:34.969Z,1017.21
2018-01-07T06:42:34.957Z,1017.24
2018-01-07T06:43:34.942Z,1017.21
2018-01-07T06:44:34.946Z,1017.17
2018-01-07T06:45:34.927Z,1017.23
2018-01-07T06:46:34.907Z,1017.23
2018-01-07T06:47:34.899Z,1017.21
2018-01-07T06:48:34.882Z,1017.21
2018-01-07T06:49:34.874Z,1017.23
2018-01-07T06:50:34.854Z,1017.27
2018-01-07T06:51:34.839Z,1017.23
2018-01-07T06:52:34.831Z,1017.29
2018-01-07T06:53:34.815Z,1017.24
2018-01-07T06:54:34.805Z,1017.22
2018-01-07T06:55:34.792Z,1017.22
2018-01-07T06:56:34.779Z,1017.22
2018-01-07T06:57:34.766Z,1017.21
2018-01-07T06:58:34.766Z,1017.14
2018-01-07T06:59:34.740Z,1017.21
2018-01-07T07:00:34.731Z,1017.22
2018-01-07T07:01:34.715Z,1017.21
2018-01-07T07:02:34.703Z,1017.23
2018-01-07T07:03:34.689Z,1017.28
2018-01-07T07:04:34.692Z,1017.35
2018-01-07T07:05:34.667Z,1017.35
2018-01-07T07:06:34.653Z,1017.33
2018-01-07T07:07:34.637Z,1017.33
2018-01-07T07:08:34.628Z,1017.39
2018-01-07T07:09:34.613Z,1017.37
2018-01-07T07:10:34.600Z,1017.36
2018-01-07T07:11:34.586Z,1017.43
2018-01-07T07:12:34.574Z,1017.46
2018-01-07T07:13:34.562Z,1017.51
2018-01-07T07:14:34.548Z,1017.50
2018-01-07T07:15:34.537Z,1017.49
2018-01-07T07:16:34.520Z,1017.55
2018-01-07T07:17:34.511Z,1017.59
2018-01-07T07:18:34.496Z,1017.63
2018-01-07T07:19:34.484Z,1017.65
2018-01-07T07:20:34.473Z,1017.69
2018-01-07T07:21:34.462Z,1017.68
2018-01-07T07:22:34.446Z,1017.69
2018-01-07T07:23:34.437Z,1017.64
2018-01-07T07:24:34.421Z,1017.86
2018-01-07T07:25:34.410Z,1017.85
2018-01-07T07:26:34.393Z,1017.84
2018-01-07T07:27:34.378Z,1017.91
2018-01-07T07:28:34.368Z,1017.94
2018-01-07T07:29:34.354Z,1017.92
2018-01-07T07:30:34.342Z,1017.94
2018-01-07T07:31:34.327Z,1017.97
2018-01-07T07:32:34.323Z,1018.03
2018-01-07T07:33:34.299Z,1018.03
2018-01-07T07:34:34.289Z,1018.03
2018-01-07T07:35:34.274Z,1018.07
2018-01-07T07:36:34.260Z,1018.11
2018-01-07T07:37:34.251Z,1018.13
2018-01-07T07:38:34.243Z,1018.11
2018-01-07T07:39:34.223Z,1018.09
2018-01-07T07:40:34.205Z,1018.11
2018-01-07T07:41:34.196Z,1018.12
2018-01-07T07:42:34.201Z,1018.20
2018-01-07T07:43:34.190Z,1018.25
2018-01-07T07:44:34.160Z,1018.33
2018-01-07T07:45:34.192Z,1018.34
2018-01-07T07:46:34.131Z,1018.41
2018-01-07T07:47:34.173Z,1018.51
2018-01-07T07:48:34.176Z,1018.57
2018-01-07T07:49:34.149Z,1018.54
2018-01-07T07:50:34.114Z,1018.63
2018-01-07T07:51:34.077Z,1018.64
2018-01-07T07:52:34.055Z,1018.69
2018-01-07T07:53:34.063Z,1018.75
2018-01-07T07:54:34.088Z,1018.78
2018-01-07T07:55:34.023Z,1018.81
2018-01-07T07:56:34.006Z,1018.80
2018-01-07T07:57:33.993Z,1018.81
2018-01-07T07:58:34.018Z,1018.82
2018-01-07T07:59:33.960Z,1018.81
2018-01-07T08:00:33.973Z,1018.90
2018-01-07T08:01:33.960Z,1018.92
2018-01-07T08:02:33.931Z,1018.94
2018-01-07T08:03:33.905Z,1018.97
2018-01-07T08:04:33.923Z,1018.95
2018-01-07T08:05:33.884Z,1018.96
2018-01-07T08:06:33.871Z,1018.96
2018-01-07T08:07:33.866Z,1018.99
2018-01-07T08:08:33.867Z,1019.08
2018-01-07T08:09:33.833Z,1019.09
2018-01-07T08:10:33.826Z,1019.08
2018-01-07T08:11:33.807Z,1019.11
2018-01-07T08:12:33.794Z,1019.14
2018-01-07T08:13:33.788Z,1019.22
2018-01-07T08:14:33.773Z,1019.21
2018-01-07T08:15:33.805Z,1019.25
2018-01-07T08:16:33.740Z,1019.28
2018-01-07T08:17:33.729Z,1019.29
2018-01-07T08:18:33.714Z,1019.27
2018-01-07T08:19:33.700Z,1019.34
2018-01-07T08:20:33.688Z,1019.35
2018-01-07T08:21:33.669Z,1019.38
2018-01-07T08:22:33.659Z,1019.36
2018-01-07T08:23:33.644Z,1019.36
2018-01-07T08:24:33.634Z,1019.30
2018-01-07T08:25:33.621Z,1019.31
2018-01-07T08:26:33.608Z,1019.31
2018-01-07T08:27:33.590Z,1019.31
2018-01-07T08:28:33.580Z,1019.25
2018-01-07T08:29:33.569Z,1019.29
2018-01-07T08:30:33.550Z,1019.30
2018-01-07T08:31:33.538Z,1019.30
2018-01-07T08:32:33.530Z,1019.32
2018-01-07T08:33:33.515Z,1019.30
2018-01-07T08:34:33.507Z,1019.34
2018-01-07T08:35:33.487Z,1019.37
2018-01-07T08:36:33.471Z,1019.43
2018-01-07T08:37:33.463Z,1019.42
2018-01-07T08:38:33.449Z,1019.39
2018-01-07T08:39:33.429Z,1019.47
2018-01-07T08:40:33.431Z,1019.50
2018-01-07T08:41:33.407Z,1019.46
2018-01-07T08:42:33.400Z,1019.55
2018-01-07T08:43:33.382Z,1019.51
2018-01-07T08:44:33.369Z,1019.54
2018-01-07T08:45:33.371Z,1019.53
2018-01-07T08:46:33.343Z,1019.48
2018-01-07T08:47:33.324Z,1019.44
2018-01-07T08:48:33.319Z,1019.52
2018-01-07T08:49:33.306Z,1019.49
2018-01-07T08:50:33.291Z,1019.45
2018-01-07T08:51:33.277Z,1019.44
2018-01-07T08:52:33.285Z,1019.47
2018-01-07T08:53:33.252Z,1019.45
2018-01-07T08:54:33.241Z,1019.48
2018-01-07T08:55:33.225Z,1019.50
2018-01-07T08:56:33.211Z,1019.42
2018-01-07T08:57:33.199Z,1019.44
2018-01-07T08:58:33.185Z,1019.48
2018-01-07T08:59:33.178Z,1019.50
2018-01-07T09:00:33.169Z,1019.54
2018-01-07T09:01:33.146Z,1019.48
2018-01-07T09:02:33.134Z,1019.46
2018-01-07T09:03:33.123Z,1019.45
2018-01-07T09:04:33.107Z,1019.49
2018-01-07T09:05:33.095Z,1019.47
2018-01-07T09:06:33.079Z,1019.45
2018-01-07T09:07:33.067Z,1019.50
2018-01-07T09:08:33.053Z,1019.49
2018-01-07T09:09:33.045Z,1019.49
2018-01-07T09:10:33.030Z,1019.47
2018-01-07T09:11:33.018Z,1019.44
2018-01-07T09:12:33.007Z,1019.51
2018-01-07T09:13:32.988Z,1019.53
2018-01-07T09:14:32.979Z,1019.57
2018-01-07T09:15:32.969Z,1019.62
2018-01-07T09:16:32.957Z,1019.67
2018-01-07T09:17:32.941Z,1019.68
2018-01-07T09:18:32.933Z,1019.62
2018-01-07T09:19:32.917Z,1019.67
2018-01-07T09:20:32.904Z,1019.66
2018-01-07T09:21:32.896Z,1019.70
2018-01-07T09:22:32.883Z,1019.67
2018-01-07T09:23:32.870Z,1019.71
2018-01-07T09:24:32.855Z,1019.75
2018-01-07T09:25:32.845Z,1019.83
2018-01-07T09:26:32.842Z,1019.78
2018-01-07T09:27:32.820Z,1019.82
2018-01-07T09:28:32.808Z,1019.82
2018-01-07T09:29:32.798Z,1019.88
2018-01-07T09:30:32.786Z,1019.86
2018-01-07T09:31:32.803Z,1019.87
2018-01-07T09:32:32.762Z,1019.91
2018-01-07T09:33:32.757Z,1019.99
2018-01-07T09:34:32.737Z,1019.99
2018-01-07T09:35:32.720Z,1019.99
2018-01-07T09:36:32.715Z,1019.98
2018-01-07T09:37:32.708Z,1020.03
2018-01-07T09:38:32.691Z,1020.05
2018-01-07T09:39:32.681Z,1020.10
2018-01-07T09:40:32.667Z,1020.11
2018-01-07T09:41:32.654Z,1020.10
2018-01-07T09:42:32.646Z,1020.12
2018-01-07T09:43:32.631Z,1020.17
2018-01-07T09:44:32.626Z,1020.19
2018-01-07T09:45:32.613Z,1020.19
2018-01-07T09:46:32.592Z,1020.20
2018-01-07T09:47:32.579Z,1020.29
2018-01-07T09:48:32.571Z,1020.23
2018-01-07T09:49:32.560Z,1020.25
2018-01-07T09:50:32.546Z,1020.26
2018-01-07T09:51:32.536Z,1020.33
2018-01-07T09:52:32.523Z,1020.33
2018-01-07T09:53:32.507Z,1020.38
2018-01-07T09:54:32.501Z,1020.34
2018-01-07T09:55:32.487Z,1020.33
2018-01-07T09:56:32.479Z,1020.39
2018-01-07T09:57:32.461Z,1020.38
2018-01-07T09:58:32.453Z,1020.36
2018-01-07T09:59:32.451Z,1020.45
2018-01-07T10:00:32.427Z,1020.44
2018-01-07T10:01:32.418Z,1020.51
2018-01-07T10:02:32.408Z,1020.45
2018-01-07T10:03:32.393Z,1020.47
2018-01-07T10:04:32.381Z,1020.54
2018-01-07T10:05:32.387Z,1020.44
2018-01-07T10:06:32.362Z,1020.53
2018-01-07T10:07:32.351Z,1020.55
2018-01-07T10:08:32.344Z,1020.56
2018-01-07T10:09:32.332Z,1020.47
2018-01-07T10:10:32.319Z,1020.54
2018-01-07T10:11:32.312Z,1020.52
2018-01-07T10:12:32.298Z,1020.54
2018-01-07T10:13:32.288Z,1020.55
2018-01-07T10:14:32.277Z,1020.62
2018-01-07T10:15:32.266Z,1020.58
2018-01-07T10:16:32.257Z,1020.57
2018-01-07T10:17:32.261Z,1020.60
2018-01-07T10:18:32.236Z,1020.56
2018-01-07T10:19:32.225Z,1020.51
2018-01-07T10:20:32.214Z,1020.53
2018-01-07T10:21:32.207Z,1020.59
2018-01-07T10:22:32.202Z,1020.57
2018-01-07T10:23:32.184Z,1020.55
2018-01-07T10:24:32.180Z,1020.49
2018-01-07T10:25:32.170Z,1020.53
2018-01-07T10:26:32.155Z,1020.57
2018-01-07T10:27:32.142Z,1020.52
2018-01-07T10:28:32.137Z,1020.49
2018-01-07T10:29:32.132Z,1020.51
2018-01-07T10:30:32.115Z,1020.54
2018-01-07T10:31:32.110Z,1020.48
2018-01-07T10:32:32.099Z,1020.52
2018-01-07T10:33:32.082Z,1020.62
2018-01-07T10:34:32.074Z,1020.51
2018-01-07T10:35:32.069Z,1020.55
2018-01-07T10:36:32.056Z,1020.60
2018-01-07T10:37:32.045Z,1020.70
2018-01-07T10:38:32.045Z,1020.68
2018-01-07T10:39:32.027Z,1020.71
2018-01-07T10:40:32.014Z,1020.67
2018-01-07T10:41:32.013Z,1020.69
2018-01-07T10:42:31.998Z,1020.62
2018-01-07T10:43:31.993Z,1020.63
2018-01-07T10:44:31.978Z,1020.71
2018-01-07T10:45:31.969Z,1020.57
2018-01-07T10:46:31.959Z,1020.74
2018-01-07T10:47:31.951Z,1020.77
2018-01-07T10:48:31.941Z,1020.67
2018-01-07T10:49:31.936Z,1020.73
2018-01-07T10:50:31.926Z,1020.73
2018-01-07T10:51:31.915Z,1020.77
2018-01-07T10:52:31.900Z,1020.75
2018-01-07T10:53:31.891Z,1020.73
2018-01-07T10:54:31.879Z,1020.79
2018-01-07T10:55:31.889Z,1020.76
2018-01-07T10:56:31.863Z,1020.84
2018-01-07T10:57:31.854Z,1020.82
2018-01-07T10:58:31.845Z,1020.92
2018-01-07T10:59:31.833Z,1020.89
2018-01-07T11:00:31.819Z,1020.90
2018-01-07T11:01:31.810Z,1020.94
2018-01-07T11:02:31.805Z,1020.86
2018-01-07T11:03:31.791Z,1020.97
2018-01-07T11:04:31.782Z,1020.98
2018-01-07T11:05:31.767Z,1020.91
2018-01-07T11:06:31.764Z,1020.91
2018-01-07T11:07:31.749Z,1020.95
2018-01-07T11:08:31.744Z,1020.90
2018-01-07T11:09:31.730Z,1020.90
2018-01-07T11:10:31.721Z,1020.93
2018-01-07T11:11:31.706Z,1020.94
2018-01-07T11:12:31.698Z,1020.91
2018-01-07T11:13:31.686Z,1020.84
2018-01-07T11:14:31.676Z,1020.89
2018-01-07T11:15:31.670Z,1020.83
2018-01-07T11:16:31.656Z,1020.80
2018-01-07T11:17:31.648Z,1020.76
2018-01-07T11:18:31.638Z,1020.72
2018-01-07T11:19:31.626Z,1020.75
2018-01-07T11:20:31.612Z,1020.79
2018-01-07T11:21:31.609Z,1020.76
2018-01-07T11:22:31.598Z,1020.78
2018-01-07T11:23:31.590Z,1020.78
2018-01-07T11:24:31.621Z,1020.80
2018-01-07T11:25:31.567Z,1020.79
2018-01-07T11:26:31.582Z,1020.80
2018-01-07T11:27:31.548Z,1020.81
2018-01-07T11:28:31.540Z,1020.76
2018-01-07T11:29:31.529Z,1020.78
2018-01-07T11:30:31.531Z,1020.73
2018-01-07T11:31:31.519Z,1020.80
2018-01-07T11:32:31.505Z,1020.74
2018-01-07T11:33:31.500Z,1020.87
2018-01-07T11:34:31.489Z,1020.82
2018-01-07T11:35:31.474Z,1020.80
2018-01-07T11:36:31.469Z,1020.76
2018-01-07T11:37:31.467Z,1020.75
2018-01-07T11:38:31.460Z,1020.78
2018-01-07T11:39:31.449Z,1020.77
2018-01-07T11:40:31.433Z,1020.84
2018-01-07T11:41:31.431Z,1020.80
2018-01-07T11:42:31.415Z,1020.76
2018-01-07T11:43:31.408Z,1020.76
2018-01-07T11:44:31.404Z,1020.79
2018-01-07T11:45:31.392Z,1020.76
2018-01-07T11:46:31.389Z,1020.77
2018-01-07T11:47:31.374Z,1020.78
2018-01-07T11:48:31.372Z,1020.73
2018-01-07T11:49:31.359Z,1020.75
2018-01-07T11:50:31.353Z,1020.71
2018-01-07T11:51:31.347Z,1020.74
2018-01-07T11:52:31.340Z,1020.66
2018-01-07T11:53:31.325Z,1020.65
2018-01-07T11:54:31.320Z,1020.72
2018-01-07T11:55:31.311Z,1020.69
2018-01-07T11:56:31.305Z,1020.58
2018-01-07T11:57:31.303Z,1020.57
2018-01-07T11:58:31.291Z,1020.67
2018-01-07T11:59:31.279Z,1020.63
2018-01-07T12:00:31.270Z,1020.58
2018-01-07T12:01:31.266Z,1020.53
2018-01-07T12:02:31.265Z,1020.53
2018-01-07T12:03:31.246Z,1020.60
2018-01-07T12:04:31.251Z,1020.53
2018-01-07T12:05:31.252Z,1020.60
2018-01-07T12:06:31.264Z,1020.56
2018-01-07T12:07:31.220Z,1020.55
2018-01-07T12:08:31.214Z,1020.56
2018-01-07T12:09:31.225Z,1020.50
2018-01-07T12:10:31.206Z,1020.57
2018-01-07T12:11:31.184Z,1020.60
2018-01-07T12:12:31.176Z,1020.52
2018-01-07T12:13:31.168Z,1020.49
2018-01-07T12:14:31.168Z,1020.60
2018-01-07T12:15:31.151Z,1020.62
2018-01-07T12:16:31.149Z,1020.64
2018-01-07T12:17:31.163Z,1020.64